Time;durP1;ratioP1;P1;durP2;ratioP2;P2;SDS_P1;SDS_P2;PMS_P1;PMS_P2;Temp;Humidity;BMP_temperature;BMP_pressure;BME280_temperature;BME280_humidity;BME280_pressure;Samples;Min_cycle;Max_cycle;Signal;HPM_P1;HPM_P2
2023/10/21 00:02:18;;;;;;;0.70;0.20;;;11.50;99.90;;;;;;4890580;29;20051;-92
2023/10/21 00:04:43;;;;;;;0.60;0.30;;;11.40;99.90;;;;;;4892876;29;20039;-92
2023/10/21 00:07:09;;;;;;;0.82;0.30;;;11.30;99.90;;;;;;4893895;29;20039;-92
2023/10/21 00:09:35;;;;;;;0.40;0.20;;;11.30;99.90;;;;;;4891862;29;20143;-92
2023/10/21 00:12:00;;;;;;;1.75;0.30;;;11.30;99.90;;;;;;4907566;29;20036;-91
2023/10/21 00:14:26;;;;;;;1.00;0.30;;;11.30;99.90;;;;;;4892321;29;20113;-91
2023/10/21 00:16:52;;;;;;;1.75;0.50;;;11.30;99.90;;;;;;4911308;29;20028;-91
2023/10/21 00:19:18;;;;;;;0.82;0.30;;;11.30;99.90;;;;;;4908562;29;20020;-92
2023/10/21 00:21:43;;;;;;;1.38;0.40;;;11.30;99.90;;;;;;4892118;29;20540;-92
2023/10/21 00:24:09;;;;;;;1.45;0.40;;;11.30;99.90;;;;;;4892631;29;20024;-91
2023/10/21 00:26:47;;;;;;;1.05;0.38;;;11.30;99.90;;;;;;4909113;29;20043;-92
2023/10/21 00:29:14;;;;;;;1.80;0.40;;;11.20;99.90;;;;;;4930106;29;20123;-91
2023/10/21 00:31:41;;;;;;;1.40;0.30;;;11.20;99.90;;;;;;4927958;29;20294;-92
2023/10/21 00:34:06;;;;;;;0.88;0.30;;;11.20;99.90;;;;;;4912703;29;20027;-92
2023/10/21 00:36:32;;;;;;;1.67;0.38;;;11.20;99.90;;;;;;4915803;29;20035;-91
2023/10/21 00:38:58;;;;;;;0.95;0.35;;;11.20;99.90;;;;;;4937350;29;20417;-91
2023/10/21 00:41:24;;;;;;;3.70;0.60;;;11.20;99.90;;;;;;4923312;29;20036;-92
2023/10/21 00:43:49;;;;;;;0.60;0.30;;;11.20;99.90;;;;;;4929208;29;20124;-91
2023/10/21 00:46:19;;;;;;;1.95;0.40;;;11.20;99.90;;;;;;4937424;29;20468;-92
2023/10/21 00:48:46;;;;;;;0.80;0.40;;;11.20;99.90;;;;;;4911500;29;20035;-91
2023/10/21 00:51:11;;;;;;;1.13;0.40;;;11.30;99.90;;;;;;4924551;29;20264;-92
2023/10/21 00:53:38;;;;;;;1.10;0.40;;;11.20;99.90;;;;;;4911770;29;20043;-92
2023/10/21 00:56:07;;;;;;;1.75;0.52;;;11.20;99.90;;;;;;4928934;29;20032;-91
2023/10/21 00:58:35;;;;;;;0.70;0.38;;;11.20;99.90;;;;;;4929679;29;20031;-92
2023/10/21 01:01:03;;;;;;;1.35;0.30;;;11.20;99.90;;;;;;4926099;29;20059;-92
2023/10/21 01:03:30;;;;;;;1.05;0.45;;;11.20;99.90;;;;;;4927021;29;20066;-92
2023/10/21 01:05:55;;;;;;;2.35;0.40;;;11.20;99.90;;;;;;4927298;29;20038;-92
2023/10/21 01:08:21;;;;;;;1.23;0.45;;;11.20;99.90;;;;;;4926984;29;20027;-92
2023/10/21 01:10:47;;;;;;;0.90;0.32;;;11.20;99.90;;;;;;4929143;29;20094;-92
2023/10/21 01:13:13;;;;;;;1.20;0.40;;;11.20;99.90;;;;;;4927164;29;20059;-92
2023/10/21 01:15:39;;;;;;;0.88;0.30;;;11.30;99.90;;;;;;4896528;29;20031;-92
2023/10/21 01:18:08;;;;;;;1.30;0.40;;;11.20;99.90;;;;;;4923780;29;20024;-91
2023/10/21 01:20:41;;;;;;;0.80;0.40;;;11.20;99.90;;;;;;4911529;29;20156;-92
2023/10/21 01:23:08;;;;;;;1.50;0.40;;;11.30;99.90;;;;;;4929015;29;20031;-91
2023/10/21 01:25:34;;;;;;;1.20;0.50;;;11.30;99.90;;;;;;4926532;29;20068;-91
2023/10/21 01:28:01;;;;;;;3.75;0.63;;;11.30;99.90;;;;;;4926547;29;20369;-90
2023/10/21 01:30:27;;;;;;;1.67;0.50;;;11.20;99.90;;;;;;4926401;29;20151;-91
2023/10/21 01:32:53;;;;;;;1.35;0.63;;;11.20;99.90;;;;;;4928300;29;20036;-91
2023/10/21 01:35:18;;;;;;;1.33;0.60;;;11.30;99.90;;;;;;4929612;29;20067;-91
2023/10/21 01:37:45;;;;;;;1.30;0.57;;;11.20;99.90;;;;;;4912978;29;20027;-90
2023/10/21 01:40:12;;;;;;;2.17;0.60;;;11.30;99.90;;;;;;4902009;29;20082;-92
2023/10/21 01:42:38;;;;;;;1.60;0.50;;;11.30;99.90;;;;;;4934078;29;20035;-91
2023/10/21 01:45:05;;;;;;;2.53;0.70;;;11.30;99.90;;;;;;4936618;29;20035;-92
2023/10/21 01:47:31;;;;;;;2.65;0.70;;;11.30;99.90;;;;;;4936061;29;20110;-91
2023/10/21 01:49:58;;;;;;;2.15;0.60;;;11.30;99.90;;;;;;4935419;29;20035;-92
2023/10/21 01:52:24;;;;;;;2.53;0.80;;;11.30;99.90;;;;;;4929555;29;20428;-92
2023/10/21 01:54:50;;;;;;;1.30;0.60;;;11.20;99.90;;;;;;4915221;29;20499;-91
2023/10/21 01:57:16;;;;;;;2.05;0.90;;;11.20;99.90;;;;;;4933709;29;20028;-92
2023/10/21 01:59:43;;;;;;;2.70;1.20;;;11.20;99.90;;;;;;4934627;29;20181;-91
2023/10/21 02:02:09;;;;;;;4.13;0.70;;;11.20;99.90;;;;;;4901768;29;20477;-91
2023/10/21 02:04:35;;;;;;;1.80;0.70;;;11.30;99.90;;;;;;4910840;29;20039;-91
2023/10/21 02:07:00;;;;;;;1.85;0.70;;;11.30;99.90;;;;;;4900629;29;20051;-91
2023/10/21 02:09:26;;;;;;;1.88;0.70;;;11.20;99.90;;;;;;4903060;29;20075;-91
2023/10/21 02:11:55;;;;;;;7.13;1.30;;;11.30;99.90;;;;;;4935355;29;20039;-91
2023/10/21 02:14:24;;;;;;;2.05;0.80;;;11.30;99.90;;;;;;4935038;29;20031;-91
2023/10/21 02:16:53;;;;;;;1.70;0.82;;;11.30;99.90;;;;;;4902950;29;20212;-92
2023/10/21 02:19:19;;;;;;;1.63;0.80;;;11.20;99.90;;;;;;4935063;29;20063;-91
2023/10/21 02:21:46;;;;;;;2.28;0.60;;;11.20;99.90;;;;;;4920822;29;20027;-92
2023/10/21 02:24:12;;;;;;;1.90;0.70;;;11.20;99.90;;;;;;4935933;29;20067;-93
2023/10/21 02:26:37;;;;;;;1.65;0.60;;;11.20;99.90;;;;;;4920061;29;20052;-91
2023/10/21 02:29:03;;;;;;;2.22;0.75;;;11.20;99.90;;;;;;4935396;29;20068;-92
2023/10/21 02:31:30;;;;;;;2.08;0.80;;;11.20;99.90;;;;;;4916370;29;21958;-92
2023/10/21 02:33:55;;;;;;;2.47;0.60;;;11.20;99.90;;;;;;4914996;29;20058;-92
2023/10/21 02:36:21;;;;;;;2.03;0.63;;;11.20;99.90;;;;;;4935718;29;20016;-92
2023/10/21 02:38:51;;;;;;;1.85;0.70;;;11.20;99.90;;;;;;4919031;29;20519;-90
2023/10/21 02:41:17;;;;;;;1.30;0.60;;;11.20;99.90;;;;;;4933193;29;20027;-91
2023/10/21 02:43:42;;;;;;;1.80;0.82;;;11.20;99.90;;;;;;4918498;29;20031;-93
2023/10/21 02:46:13;;;;;;;1.15;0.60;;;11.30;99.90;;;;;;4934633;29;20043;-91
2023/10/21 02:48:39;;;;;;;2.22;0.70;;;11.20;99.90;;;;;;4914858;29;20404;-91
2023/10/21 02:51:10;;;;;;;1.27;0.55;;;11.30;99.90;;;;;;4929539;29;20031;-92
2023/10/21 02:53:36;;;;;;;2.28;0.90;;;11.30;99.90;;;;;;4911957;29;20063;-91
2023/10/21 02:56:06;;;;;;;3.60;0.75;;;11.30;99.90;;;;;;4913965;29;20409;-92
2023/10/21 02:58:32;;;;;;;1.60;0.60;;;11.30;99.90;;;;;;4914509;29;20042;-92
2023/10/21 03:01:03;;;;;;;1.85;0.73;;;11.30;99.90;;;;;;4930193;29;20043;-91
2023/10/21 03:03:28;;;;;;;1.60;0.80;;;11.30;99.90;;;;;;4931087;29;20491;-91
2023/10/21 03:05:54;;;;;;;2.03;0.73;;;11.30;99.90;;;;;;4931574;29;20028;-92
2023/10/21 03:08:20;;;;;;;1.42;0.70;;;11.40;99.90;;;;;;4929579;29;20067;-91
2023/10/21 03:10:45;;;;;;;1.48;0.60;;;11.50;99.90;;;;;;4931234;29;20035;-92
2023/10/21 03:13:12;;;;;;;1.45;0.60;;;11.50;99.90;;;;;;4938661;29;20066;-90
2023/10/21 03:15:38;;;;;;;1.10;0.50;;;11.40;99.90;;;;;;4913048;29;20373;-92
2023/10/21 03:18:04;;;;;;;1.33;0.55;;;11.40;99.90;;;;;;4911894;29;20103;-92
2023/10/21 03:20:33;;;;;;;1.65;0.70;;;11.50;99.90;;;;;;4928543;29;20111;-91
2023/10/21 03:22:59;;;;;;;1.60;0.60;;;11.50;99.90;;;;;;4928012;29;20131;-91
2023/10/21 03:25:25;;;;;;;1.70;0.70;;;11.60;99.90;;;;;;4930074;29;20058;-92
2023/10/21 03:27:51;;;;;;;1.95;0.60;;;11.60;99.90;;;;;;4932291;29;20083;-91
2023/10/21 03:30:17;;;;;;;2.65;0.90;;;11.60;99.90;;;;;;4932396;29;20087;-92
2023/10/21 03:32:43;;;;;;;1.75;0.90;;;11.60;99.90;;;;;;4930947;29;20043;-92
2023/10/21 03:35:09;;;;;;;2.17;0.50;;;11.70;99.90;;;;;;4915161;29;20034;-90
2023/10/21 03:37:35;;;;;;;1.65;0.60;;;11.70;99.90;;;;;;4915702;29;20119;-91
2023/10/21 03:40:05;;;;;;;1.38;0.70;;;11.70;99.90;;;;;;4929345;29;20039;-91
2023/10/21 03:42:31;;;;;;;2.28;0.80;;;11.80;99.90;;;;;;4913988;29;20063;-91
2023/10/21 03:44:57;;;;;;;3.92;0.90;;;11.80;99.90;;;;;;4928650;29;20384;-91
2023/10/21 03:47:23;;;;;;;2.95;1.00;;;11.80;99.90;;;;;;4927076;29;20032;-92
2023/10/21 03:49:48;;;;;;;2.97;0.82;;;11.80;99.90;;;;;;4929594;29;20418;-91
2023/10/21 03:52:14;;;;;;;1.52;0.70;;;11.80;99.90;;;;;;4912231;29;20036;-91
2023/10/21 03:54:40;;;;;;;2.50;0.70;;;11.80;99.90;;;;;;4926651;29;20032;-91
2023/10/21 03:57:06;;;;;;;1.15;0.60;;;11.80;99.90;;;;;;4927175;29;20031;-93
2023/10/21 03:59:32;;;;;;;1.33;0.73;;;11.90;99.90;;;;;;4912160;29;20019;-91
2023/10/21 04:01:58;;;;;;;2.10;0.60;;;11.80;99.90;;;;;;4910948;29;20070;-91
2023/10/21 04:04:23;;;;;;;1.83;0.88;;;11.80;99.90;;;;;;4912850;29;20433;-92
2023/10/21 04:06:49;;;;;;;2.05;0.68;;;11.90;99.90;;;;;;4929647;29;21922;-91
2023/10/21 04:09:15;;;;;;;1.20;0.60;;;11.90;99.90;;;;;;4929739;29;20102;-92
2023/10/21 04:11:42;;;;;;;1.27;0.60;;;11.90;99.90;;;;;;4914257;29;20036;-92
2023/10/21 04:14:10;;;;;;;1.60;0.70;;;12.00;99.90;;;;;;4930029;29;20035;-91
2023/10/21 04:16:36;;;;;;;1.58;0.73;;;11.90;99.90;;;;;;4911050;29;20485;-91
2023/10/21 04:19:01;;;;;;;1.30;0.50;;;11.90;99.90;;;;;;4922383;29;20050;-92
2023/10/21 04:21:27;;;;;;;1.10;0.50;;;11.90;99.90;;;;;;4928119;29;20400;-91
2023/10/21 04:23:53;;;;;;;2.25;0.75;;;11.80;99.90;;;;;;4928694;29;20499;-91
2023/10/21 04:26:18;;;;;;;2.20;0.70;;;11.90;99.90;;;;;;4910732;29;20024;-91
2023/10/21 04:28:44;;;;;;;1.55;0.70;;;11.80;99.90;;;;;;4924186;29;20058;-91
2023/10/21 04:31:10;;;;;;;1.20;0.60;;;11.80;99.90;;;;;;4912385;29;20023;-90
2023/10/21 04:33:35;;;;;;;1.30;0.60;;;11.70;99.90;;;;;;4929258;29;20400;-91
2023/10/21 04:36:01;;;;;;;2.10;0.60;;;11.70;99.90;;;;;;4929790;29;20024;-92
2023/10/21 04:38:26;;;;;;;1.40;0.73;;;11.70;99.90;;;;;;4910582;29;20034;-91
2023/10/21 04:40:53;;;;;;;1.33;0.50;;;11.70;99.90;;;;;;4925195;29;20039;-91
2023/10/21 04:43:19;;;;;;;1.20;0.57;;;11.70;99.90;;;;;;4928175;29;20396;-91
2023/10/21 04:45:45;;;;;;;1.20;0.60;;;11.70;99.90;;;;;;4930153;29;20389;-91
2023/10/21 04:48:10;;;;;;;0.95;0.50;;;11.70;99.90;;;;;;4929394;29;20039;-91
2023/10/21 04:50:36;;;;;;;1.63;0.60;;;11.70;99.90;;;;;;4926972;29;20031;-92
2023/10/21 04:53:02;;;;;;;1.15;0.50;;;11.70;99.90;;;;;;4927827;29;20035;-90
2023/10/21 04:55:28;;;;;;;1.38;0.40;;;11.60;99.90;;;;;;4927715;29;20036;-90
2023/10/21 04:57:53;;;;;;;1.20;0.50;;;11.70;99.90;;;;;;4895537;29;20035;-91
2023/10/21 05:00:19;;;;;;;1.00;0.45;;;11.60;99.90;;;;;;4911380;29;20488;-90
2023/10/21 05:02:45;;;;;;;2.58;0.40;;;11.70;99.90;;;;;;4927442;29;20164;-91
2023/10/21 05:05:12;;;;;;;1.33;0.40;;;11.70;99.90;;;;;;4911766;29;20027;-89
2023/10/21 05:07:39;;;;;;;1.20;0.47;;;11.60;99.90;;;;;;4913241;29;20051;-90
2023/10/21 05:10:05;;;;;;;0.80;0.40;;;11.60;99.90;;;;;;4924734;29;20082;-91
2023/10/21 05:12:31;;;;;;;1.10;0.40;;;11.60;99.90;;;;;;4910087;29;20094;-90
2023/10/21 05:14:57;;;;;;;0.90;0.40;;;11.60;99.90;;;;;;4925722;29;20027;-91
2023/10/21 05:17:22;;;;;;;0.85;0.40;;;11.70;99.90;;;;;;4908080;29;20027;-91
2023/10/21 05:19:48;;;;;;;1.13;0.43;;;11.70;99.90;;;;;;4926788;29;20028;-90
2023/10/21 05:22:14;;;;;;;2.30;0.50;;;11.80;99.90;;;;;;4926557;29;20034;-89
2023/10/21 05:24:40;;;;;;;0.98;0.43;;;11.80;99.90;;;;;;4926544;29;20031;-91
2023/10/21 05:27:05;;;;;;;0.93;0.40;;;11.80;99.90;;;;;;4928534;29;20055;-92
2023/10/21 05:29:34;;;;;;;1.52;0.70;;;11.80;99.90;;;;;;4910452;29;20040;-91
2023/10/21 05:31:59;;;;;;;1.25;0.50;;;11.80;99.90;;;;;;4924693;29;20102;-91
2023/10/21 05:34:25;;;;;;;2.72;0.55;;;11.90;99.90;;;;;;4926625;29;20107;-91
2023/10/21 05:36:51;;;;;;;1.40;0.50;;;11.80;99.90;;;;;;4935277;29;20031;-92
2023/10/21 05:39:19;;;;;;;1.35;0.50;;;11.80;99.90;;;;;;4910545;29;20031;-91
2023/10/21 05:41:44;;;;;;;1.90;0.40;;;11.70;99.90;;;;;;4925954;29;20043;-91
2023/10/21 05:44:12;;;;;;;1.05;0.60;;;11.70;99.90;;;;;;4908918;29;20038;-91
2023/10/21 05:46:41;;;;;;;1.98;0.47;;;11.70;99.90;;;;;;4926958;29;20031;-92
2023/10/21 05:49:06;;;;;;;1.13;0.50;;;11.70;99.90;;;;;;4925764;29;20128;-92
2023/10/21 05:51:32;;;;;;;1.23;0.47;;;11.70;99.90;;;;;;4906095;29;20024;-91
2023/10/21 05:53:58;;;;;;;2.05;0.47;;;11.80;99.90;;;;;;4895516;29;20036;-90
2023/10/21 05:56:23;;;;;;;1.48;0.40;;;11.80;99.90;;;;;;4928506;29;20024;-92
2023/10/21 05:58:50;;;;;;;2.67;0.50;;;11.70;99.90;;;;;;4908814;29;20036;-91
2023/10/21 06:01:16;;;;;;;1.90;0.43;;;11.70;99.90;;;;;;4896404;29;20028;-91
2023/10/21 06:03:42;;;;;;;2.15;0.60;;;11.70;99.90;;;;;;4927826;29;20086;-91
2023/10/21 06:06:08;;;;;;;1.40;0.40;;;11.70;99.90;;;;;;4926809;29;20110;-91
2023/10/21 06:08:36;;;;;;;0.82;0.30;;;11.60;99.90;;;;;;4913986;29;20390;-91
2023/10/21 06:11:02;;;;;;;0.90;0.40;;;11.60;99.90;;;;;;4911424;29;20032;-91
2023/10/21 06:13:28;;;;;;;0.95;0.40;;;11.50;99.90;;;;;;4912336;29;20039;-91
2023/10/21 06:15:53;;;;;;;1.00;0.40;;;11.50;99.90;;;;;;4896695;29;20043;-91
2023/10/21 06:18:21;;;;;;;1.00;0.30;;;11.50;99.90;;;;;;4927671;29;20559;-92
2023/10/21 06:20:51;;;;;;;1.38;0.50;;;11.50;99.90;;;;;;4894956;29;20043;-91
2023/10/21 06:23:17;;;;;;;1.25;0.30;;;11.50;99.90;;;;;;4923810;29;20039;-92
2023/10/21 06:25:47;;;;;;;1.10;0.30;;;11.50;99.90;;;;;;4930656;29;20028;-92
2023/10/21 06:28:15;;;;;;;1.10;0.30;;;11.50;99.90;;;;;;4932144;29;20040;-90
2023/10/21 06:30:41;;;;;;;0.75;0.30;;;11.60;99.90;;;;;;4923499;29;20052;-92
2023/10/21 06:33:10;;;;;;;1.02;0.35;;;11.60;99.90;;;;;;4911953;29;20036;-92
2023/10/21 06:35:37;;;;;;;0.60;0.30;;;11.60;99.90;;;;;;4931996;29;20038;-91
2023/10/21 06:38:05;;;;;;;1.00;0.60;;;11.60;99.90;;;;;;4914292;29;20329;-92
2023/10/21 06:40:31;;;;;;;1.25;0.30;;;11.70;99.90;;;;;;4913357;29;20056;-91
2023/10/21 06:42:57;;;;;;;0.73;0.30;;;11.70;99.90;;;;;;4925644;29;20028;-92
2023/10/21 06:45:23;;;;;;;1.27;0.40;;;11.80;99.90;;;;;;4928754;29;20027;-91
2023/10/21 06:47:49;;;;;;;1.55;0.40;;;11.80;99.90;;;;;;4940380;29;20095;-92
2023/10/21 06:50:15;;;;;;;0.98;0.35;;;11.80;99.90;;;;;;4928033;29;20032;-91
2023/10/21 06:52:40;;;;;;;1.42;0.30;;;11.90;99.90;;;;;;4937067;29;20078;-91
2023/10/21 06:55:08;;;;;;;1.92;0.40;;;11.90;99.90;;;;;;4937282;29;20031;-91
2023/10/21 06:57:33;;;;;;;1.30;0.47;;;11.90;99.90;;;;;;4928863;29;20024;-90
2023/10/21 06:59:59;;;;;;;1.27;0.40;;;11.90;99.90;;;;;;4937947;29;20020;-90
2023/10/21 07:02:25;;;;;;;1.30;0.30;;;12.00;99.90;;;;;;4911630;29;20446;-91
2023/10/21 07:04:51;;;;;;;0.80;0.40;;;12.00;99.90;;;;;;4926861;29;20020;-91
2023/10/21 07:07:17;;;;;;;2.30;0.50;;;12.10;99.90;;;;;;4923740;29;20024;-89
2023/10/21 07:09:42;;;;;;;1.27;0.50;;;12.10;99.90;;;;;;4938552;29;20039;-90
2023/10/21 07:12:08;;;;;;;1.10;0.40;;;12.10;99.90;;;;;;4937813;29;20663;-90
2023/10/21 07:14:35;;;;;;;1.77;0.50;;;12.20;99.90;;;;;;4930644;29;20212;-91
2023/10/21 07:17:00;;;;;;;1.25;0.50;;;12.40;99.90;;;;;;4926894;29;20044;-90
2023/10/21 07:19:26;;;;;;;1.38;0.50;;;12.40;99.90;;;;;;4914557;29;20048;-89
2023/10/21 07:21:52;;;;;;;1.90;0.70;;;12.50;99.90;;;;;;4926533;29;20036;-90
2023/10/21 07:24:18;;;;;;;1.48;0.60;;;12.60;99.90;;;;;;4921816;29;20046;-90
2023/10/21 07:26:44;;;;;;;1.67;0.60;;;12.70;99.90;;;;;;4913358;29;20044;-90
2023/10/21 07:29:10;;;;;;;1.42;0.57;;;12.60;99.90;;;;;;4911857;29;20577;-91
2023/10/21 07:31:35;;;;;;;1.77;0.60;;;12.70;99.90;;;;;;4908956;29;20499;-89
2023/10/21 07:34:01;;;;;;;2.72;0.65;;;12.70;99.90;;;;;;4912580;29;20028;-88
2023/10/21 07:36:27;;;;;;;2.45;0.50;;;12.70;99.90;;;;;;4929979;29;20053;-90
2023/10/21 07:38:53;;;;;;;1.23;0.45;;;12.70;99.90;;;;;;4913047;29;20086;-89
2023/10/21 07:41:19;;;;;;;1.85;0.32;;;12.80;99.90;;;;;;4929375;29;20042;-88
2023/10/21 07:43:45;;;;;;;1.23;0.40;;;12.80;99.90;;;;;;4930168;29;20383;-90
2023/10/21 07:46:12;;;;;;;1.13;0.40;;;12.80;99.90;;;;;;4926475;29;20349;-91
2023/10/21 07:48:37;;;;;;;1.83;0.45;;;12.80;99.90;;;;;;4913503;29;20319;-90
2023/10/21 07:51:03;;;;;;;1.92;0.40;;;12.90;99.90;;;;;;4912337;29;20062;-91
2023/10/21 07:53:29;;;;;;;2.90;0.40;;;13.00;99.90;;;;;;4895457;29;20039;-90
2023/10/21 07:55:55;;;;;;;0.80;0.40;;;13.00;99.90;;;;;;4925593;29;20048;-89
2023/10/21 07:58:22;;;;;;;0.82;0.30;;;13.00;99.90;;;;;;4925870;29;20055;-90
2023/10/21 08:00:48;;;;;;;1.42;0.30;;;13.10;99.90;;;;;;4911757;29;20027;-90
2023/10/21 08:03:14;;;;;;;1.50;0.38;;;13.20;99.90;;;;;;4926234;29;20039;-91
2023/10/21 08:05:40;;;;;;;1.35;0.30;;;13.20;99.90;;;;;;4928216;29;20110;-89
2023/10/21 08:08:06;;;;;;;2.35;0.20;;;13.20;99.90;;;;;;4926039;29;20604;-91
2023/10/21 08:10:32;;;;;;;0.90;0.20;;;13.20;99.90;;;;;;4932609;29;20473;-91
2023/10/21 08:12:57;;;;;;;1.38;0.20;;;13.20;99.90;;;;;;4925791;29;20362;-89
2023/10/21 08:15:24;;;;;;;0.80;0.20;;;13.20;99.90;;;;;;4925744;29;20020;-89
2023/10/21 08:17:50;;;;;;;1.40;0.20;;;13.20;99.90;;;;;;4928289;29;20050;-89
2023/10/21 08:20:17;;;;;;;0.70;0.20;;;13.30;99.90;;;;;;4926629;29;20500;-89
2023/10/21 08:22:43;;;;;;;0.70;0.20;;;13.20;99.90;;;;;;4928823;29;20042;-90
2023/10/21 08:25:09;;;;;;;1.27;0.10;;;13.20;99.90;;;;;;4919488;29;20028;-88
2023/10/21 08:27:36;;;;;;;0.25;0.10;;;13.20;99.90;;;;;;4925575;29;20054;-90
2023/10/21 08:30:03;;;;;;;0.35;0.15;;;13.20;99.90;;;;;;4934459;29;20031;-88
2023/10/21 08:32:29;;;;;;;0.63;0.10;;;13.30;99.90;;;;;;4913345;29;20050;-89
2023/10/21 08:34:55;;;;;;;0.93;0.10;;;13.20;99.90;;;;;;4912685;29;20028;-90
2023/10/21 08:37:21;;;;;;;0.47;0.10;;;13.20;99.90;;;;;;4894428;29;20485;-88
2023/10/21 08:39:50;;;;;;;0.25;0.10;;;13.10;99.90;;;;;;4911676;29;20091;-90
2023/10/21 08:42:23;;;;;;;0.20;0.10;;;13.10;99.90;;;;;;4929892;29;20614;-90
2023/10/21 08:44:49;;;;;;;0.15;0.10;;;13.20;99.90;;;;;;4910322;29;20433;-91
2023/10/21 08:47:18;;;;;;;0.60;0.10;;;13.20;99.90;;;;;;4926541;29;20349;-88
2023/10/21 08:49:45;;;;;;;0.57;0.10;;;13.40;99.90;;;;;;4929704;29;20477;-89
2023/10/21 08:52:14;;;;;;;0.75;0.10;;;13.70;99.90;;;;;;4910605;29;20035;-89
2023/10/21 08:54:43;;;;;;;0.88;0.10;;;13.70;99.90;;;;;;4928927;29;20083;-89
2023/10/21 08:57:09;;;;;;;1.13;0.10;;;13.90;99.90;;;;;;4908864;29;20091;-87
2023/10/21 08:59:36;;;;;;;0.93;0.00;;;13.60;99.90;;;;;;4921104;29;20060;-90
2023/10/21 09:02:02;;;;;;;1.35;0.00;;;13.70;99.90;;;;;;4903955;29;20165;-90
2023/10/21 09:04:30;;;;;;;0.35;0.10;;;13.70;99.90;;;;;;4927751;29;20050;-88
2023/10/21 09:06:59;;;;;;;0.93;0.00;;;13.70;99.90;;;;;;4925531;29;20042;-87
2023/10/21 09:09:27;;;;;;;0.20;0.10;;;13.80;99.90;;;;;;4927612;29;20440;-92
2023/10/21 09:12:11;;;;;;;0.95;0.10;;;13.80;99.90;;;;;;4925769;29;20044;-91
2023/10/21 09:14:55;;;;;;;0.20;0.00;;;13.80;99.90;;;;;;4925834;29;20032;-89
2023/10/21 09:17:33;;;;;;;0.77;0.00;;;13.80;99.90;;;;;;4935492;29;20024;-88
2023/10/21 09:19:59;;;;;;;0.17;0.00;;;13.90;99.90;;;;;;4924671;29;20079;-89
2023/10/21 09:22:27;;;;;;;0.63;0.00;;;13.90;99.90;;;;;;4937376;29;20469;-89
2023/10/21 09:25:15;;;;;;;1.45;0.05;;;14.00;99.90;;;;;;4921691;29;20388;-90
2023/10/21 09:27:43;;;;;;;1.00;0.03;;;13.90;99.90;;;;;;4925039;29;20485;-90
2023/10/21 09:30:19;;;;;;;0.32;0.00;;;14.10;99.90;;;;;;4929147;29;20028;-90
2023/10/21 09:32:46;;;;;;;0.50;0.00;;;14.10;99.90;;;;;;4911171;29;20040;-89
2023/10/21 09:35:28;;;;;;;1.85;0.00;;;14.10;99.90;;;;;;4927890;29;20024;-90
2023/10/21 09:37:54;;;;;;;0.22;0.00;;;14.10;99.90;;;;;;4926719;29;20361;-90
2023/10/21 09:40:21;;;;;;;1.42;0.03;;;14.20;99.90;;;;;;4928640;29;20026;-91
2023/10/21 09:42:52;;;;;;;0.10;0.00;;;14.20;99.90;;;;;;4912763;29;20028;-89
2023/10/21 09:45:18;;;;;;;0.47;0.00;;;14.30;99.90;;;;;;4928625;29;20020;-88
2023/10/21 09:47:48;;;;;;;0.95;0.03;;;14.60;99.90;;;;;;4928606;29;20032;-90
2023/10/21 09:50:15;;;;;;;0.85;0.10;;;14.60;99.90;;;;;;4926686;29;20446;-89
2023/10/21 09:53:05;;;;;;;0.70;0.10;;;14.80;99.90;;;;;;4911226;29;20048;-91
2023/10/21 09:55:31;;;;;;;0.70;0.10;;;14.90;99.90;;;;;;4928369;29;20126;-89
2023/10/21 09:57:58;;;;;;;0.25;0.00;;;14.50;99.90;;;;;;4927078;29;20106;-90
2023/10/21 10:00:27;;;;;;;0.73;0.00;;;14.50;99.90;;;;;;4926372;29;20115;-91
2023/10/21 10:02:54;;;;;;;0.80;0.10;;;14.30;99.90;;;;;;4931320;29;20202;-92
2023/10/21 10:05:23;;;;;;;0.60;0.20;;;14.50;99.90;;;;;;4932437;29;20436;-90
2023/10/21 10:07:49;;;;;;;0.40;0.00;;;14.60;99.90;;;;;;4928006;29;20469;-90
2023/10/21 10:10:18;;;;;;;0.77;0.00;;;14.70;99.90;;;;;;4927886;29;20122;-89
2023/10/21 10:12:52;;;;;;;0.63;0.10;;;14.60;99.90;;;;;;4931495;29;20043;-89
2023/10/21 10:15:35;;;;;;;0.52;0.03;;;14.60;99.90;;;;;;4930698;29;20095;-90
2023/10/21 10:18:18;;;;;;;0.63;0.00;;;14.60;99.90;;;;;;4928738;29;20401;-89
2023/10/21 10:20:49;;;;;;;1.30;0.05;;;14.80;99.90;;;;;;4931567;29;20396;-92
2023/10/21 10:23:15;;;;;;;1.05;0.00;;;14.80;99.90;;;;;;4931849;29;20042;-89
2023/10/21 10:25:46;;;;;;;1.10;0.20;;;14.90;99.90;;;;;;4928475;29;20098;-91
2023/10/21 10:28:25;;;;;;;0.28;0.00;;;15.00;99.90;;;;;;4930735;29;20094;-88
2023/10/21 10:30:56;;;;;;;0.65;0.10;;;15.20;99.90;;;;;;4928119;29;20046;-91
2023/10/21 10:33:25;;;;;;;0.60;0.00;;;15.00;99.90;;;;;;4928527;29;20683;-90
2023/10/21 10:35:53;;;;;;;0.20;0.00;;;15.10;99.90;;;;;;4915951;29;20052;-87
2023/10/21 10:38:28;;;;;;;1.23;0.10;;;15.30;99.90;;;;;;4932468;29;20046;-90
2023/10/21 10:41:09;;;;;;;0.85;0.10;;;15.40;99.90;;;;;;4918891;29;20102;-89
2023/10/21 10:43:38;;;;;;;0.73;0.00;;;15.60;99.90;;;;;;4932017;29;20046;-90
2023/10/21 10:46:05;;;;;;;1.90;0.10;;;15.60;99.90;;;;;;4930040;29;20031;-89
2023/10/21 10:48:31;;;;;;;0.63;0.00;;;15.40;99.90;;;;;;4926814;29;20396;-90
2023/10/21 10:50:58;;;;;;;1.00;0.10;;;15.30;99.90;;;;;;4938260;29;20019;-88
2023/10/21 10:53:24;;;;;;;0.57;0.00;;;15.40;99.90;;;;;;4930453;29;20079;-91
2023/10/21 10:55:54;;;;;;;0.65;0.00;;;15.40;99.90;;;;;;4929493;29;20063;-86
2023/10/21 10:58:19;;;;;;;;;;;15.50;99.90;;;;;;4896504;29;20039;-88
2023/10/21 11:00:49;;;;;;;4.00;0.20;;;15.70;99.90;;;;;;4930047;29;20303;-90
2023/10/21 11:03:22;;;;;;;;;;;15.70;99.90;;;;;;4931060;29;20040;-91
2023/10/21 11:05:48;;;;;;;2.60;0.10;;;15.90;99.90;;;;;;4924938;29;19990;-90
2023/10/21 11:08:15;;;;;;;1.60;0.10;;;16.10;99.90;;;;;;4924597;29;20106;-87
2023/10/21 11:10:41;;;;;;;1.20;0.03;;;16.00;99.90;;;;;;4927471;29;20036;-90
2023/10/21 11:13:07;;;;;;;0.77;0.10;;;16.10;99.90;;;;;;4929314;29;20044;-89
2023/10/21 11:15:44;;;;;;;0.70;0.00;;;15.90;99.90;;;;;;4942535;29;20473;-89
2023/10/21 11:18:15;;;;;;;1.17;0.10;;;16.00;99.90;;;;;;4930057;29;20024;-90
2023/10/21 11:20:53;;;;;;;0.90;0.10;;;16.00;99.90;;;;;;4930424;29;20066;-90
2023/10/21 11:23:23;;;;;;;1.63;0.10;;;16.00;99.90;;;;;;4931536;29;20039;-91
2023/10/21 11:25:59;;;;;;;0.52;0.00;;;16.10;99.90;;;;;;4928511;29;20059;-89
2023/10/21 11:28:26;;;;;;;0.77;0.00;;;16.10;99.90;;;;;;4923889;29;20079;-90
2023/10/21 11:30:52;;;;;;;0.88;0.00;;;15.90;99.90;;;;;;4893653;29;20028;-86
2023/10/21 11:33:18;;;;;;;1.08;0.00;;;15.70;99.90;;;;;;4928511;29;20103;-90
2023/10/21 11:35:45;;;;;;;1.95;0.00;;;16.00;99.90;;;;;;4897091;29;20036;-91
2023/10/21 11:38:13;;;;;;;0.95;0.08;;;16.20;99.90;;;;;;4927882;29;20397;-90
2023/10/21 11:40:39;;;;;;;1.13;0.10;;;16.20;99.90;;;;;;4937469;29;20028;-90
2023/10/21 11:43:13;;;;;;;1.77;0.10;;;16.20;99.90;;;;;;4914284;29;20031;-88
2023/10/21 11:45:40;;;;;;;0.95;0.10;;;16.10;99.90;;;;;;4910143;29;20548;-86
2023/10/21 11:48:09;;;;;;;1.58;0.10;;;16.10;99.90;;;;;;4926353;29;20091;-88
2023/10/21 11:50:42;;;;;;;1.15;0.10;;;15.90;99.90;;;;;;4927474;29;20028;-91
2023/10/21 11:53:08;;;;;;;0.90;0.10;;;15.90;99.90;;;;;;4924469;29;20055;-91
2023/10/21 12:07:20;;;;;;;1.48;0.10;;;16.50;99.90;;;;;;4927857;29;20059;-89
2023/10/21 12:15:02;;;;;;;1.15;0.10;;;16.40;99.90;;;;;;4926342;29;20508;-88
2023/10/21 12:26:17;;;;;;;1.35;0.00;;;16.40;99.90;;;;;;4927342;29;20024;-90
2023/10/21 12:29:18;;;;;;;0.45;0.00;;;16.60;99.90;;;;;;4932232;29;20206;-87
2023/10/21 12:31:46;;;;;;;0.60;0.10;;;16.40;99.90;;;;;;4930987;29;20044;-89
2023/10/21 12:39:44;;;;;;;2.53;0.15;;;16.40;99.90;;;;;;4927013;29;20024;-90
2023/10/21 12:43:22;;;;;;;2.10;0.20;;;16.40;99.90;;;;;;4926642;29;20513;-91
2023/10/21 12:45:00;;;;;;;1.05;0.20;;;16.40;99.90;;;;;;4916770;29;20043;-89
2023/10/21 12:47:27;;;;;;;2.30;0.30;;;16.20;99.90;;;;;;4907473;29;20063;-90
2023/10/21 12:49:55;;;;;;;2.92;0.20;;;16.00;99.90;;;;;;4925218;29;20027;-90
2023/10/21 12:52:23;;;;;;;2.00;0.30;;;16.00;99.90;;;;;;4924623;29;20122;-88
2023/10/21 12:54:49;;;;;;;1.67;0.30;;;15.70;99.90;;;;;;4925813;29;20216;-92
2023/10/21 12:57:15;;;;;;;1.90;0.20;;;15.70;99.90;;;;;;4911496;29;20027;-91
2023/10/21 12:59:41;;;;;;;2.25;0.20;;;15.70;99.90;;;;;;4894534;29;20043;-91
2023/10/21 13:02:09;;;;;;;1.80;0.13;;;15.60;99.90;;;;;;4922868;29;20031;-92
2023/10/21 13:04:40;;;;;;;1.70;0.20;;;15.80;99.90;;;;;;4910892;29;20126;-89
2023/10/21 13:07:06;;;;;;;2.13;0.10;;;15.90;99.90;;;;;;4926384;29;20019;-90
2023/10/21 13:09:32;;;;;;;0.90;0.10;;;15.80;99.90;;;;;;4924014;29;20031;-90
2023/10/21 13:11:58;;;;;;;1.85;0.15;;;16.20;99.90;;;;;;4924391;29;20057;-90
2023/10/21 13:14:26;;;;;;;2.33;0.20;;;16.10;99.90;;;;;;4931207;29;20034;-90
2023/10/21 13:16:53;;;;;;;2.13;0.10;;;15.80;99.90;;;;;;4913851;29;20035;-89
2023/10/21 13:19:18;;;;;;;2.85;0.20;;;15.60;99.90;;;;;;4913097;29;20036;-92
2023/10/21 13:21:45;;;;;;;1.80;0.10;;;15.60;99.90;;;;;;4921325;29;20079;-91